sensor_id;sensor_type;location;lat;lon;timestamp;temperature;humidity
15777;DHT22;7989;51.198;6.676;2022-11-15T00:00:35;10.10;99.90
15777;DHT22;7989;51.198;6.676;2022-11-15T00:03:02;10.10;99.90
15777;DHT22;7989;51.198;6.676;2022-11-15T00:05:34;10.10;99.90
15777;DHT22;7989;51.198;6.676;2022-11-15T00:08:01;10.10;99.90
15777;DHT22;7989;51.198;6.676;2022-11-15T00:10:28;10.20;99.90
15777;DHT22;7989;51.198;6.676;2022-11-15T00:12:55;10.20;99.90
15777;DHT22;7989;51.198;6.676;2022-11-15T00:15:21;10.30;99.90
15777;DHT22;7989;51.198;6.676;2022-11-15T00:17:48;10.30;99.90
15777;DHT22;7989;51.198;6.676;2022-11-15T00:20:16;10.30;99.90
15777;DHT22;7989;51.198;6.676;2022-11-15T00:22:44;10.30;99.90
15777;DHT22;7989;51.198;6.676;2022-11-15T00:25:11;10.40;99.90
15777;DHT22;7989;51.198;6.676;2022-11-15T00:27:38;10.40;99.90
15777;DHT22;7989;51.198;6.676;2022-11-15T00:30:06;10.40;99.90
15777;DHT22;7989;51.198;6.676;2022-11-15T00:32:32;10.40;99.90
15777;DHT22;7989;51.198;6.676;2022-11-15T00:34:59;10.50;99.90
15777;DHT22;7989;51.198;6.676;2022-11-15T00:37:26;10.50;99.90
15777;DHT22;7989;51.198;6.676;2022-11-15T00:39:54;10.50;99.90
15777;DHT22;7989;51.198;6.676;2022-11-15T00:42:21;10.50;99.90
15777;DHT22;7989;51.198;6.676;2022-11-15T00:44:48;10.60;99.90
15777;DHT22;7989;51.198;6.676;2022-11-15T00:47:14;10.60;99.90
15777;DHT22;7989;51.198;6.676;2022-11-15T00:49:41;10.50;99.90
15777;DHT22;7989;51.198;6.676;2022-11-15T00:52:08;10.60;99.90
15777;DHT22;7989;51.198;6.676;2022-11-15T00:54:35;10.50;99.90
15777;DHT22;7989;51.198;6.676;2022-11-15T00:57:03;10.60;99.90
15777;DHT22;7989;51.198;6.676;2022-11-15T00:59:30;10.60;99.90
15777;DHT22;7989;51.198;6.676;2022-11-15T01:01:57;10.60;99.90
15777;DHT22;7989;51.198;6.676;2022-11-15T01:04:23;10.60;99.90
15777;DHT22;7989;51.198;6.676;2022-11-15T01:06:50;10.60;99.90
15777;DHT22;7989;51.198;6.676;2022-11-15T01:09:17;10.70;99.90
15777;DHT22;7989;51.198;6.676;2022-11-15T01:11:44;10.70;99.90
15777;DHT22;7989;51.198;6.676;2022-11-15T01:14:12;10.70;99.90
15777;DHT22;7989;51.198;6.676;2022-11-15T01:16:39;10.70;99.90
15777;DHT22;7989;51.198;6.676;2022-11-15T01:19:05;10.70;99.90
15777;DHT22;7989;51.198;6.676;2022-11-15T01:21:32;10.80;99.90
15777;DHT22;7989;51.198;6.676;2022-11-15T01:23:59;10.80;99.90
15777;DHT22;7989;51.198;6.676;2022-11-15T01:26:26;10.80;99.90
15777;DHT22;7989;51.198;6.676;2022-11-15T01:28:53;10.80;99.90
15777;DHT22;7989;51.198;6.676;2022-11-15T01:31:21;10.80;99.90
15777;DHT22;7989;51.198;6.676;2022-11-15T01:33:49;10.80;99.90
15777;DHT22;7989;51.198;6.676;2022-11-15T01:36:19;10.80;99.90
15777;DHT22;7989;51.198;6.676;2022-11-15T01:38:52;10.90;99.90
15777;DHT22;7989;51.198;6.676;2022-11-15T01:41:21;10.90;99.90
15777;DHT22;7989;51.198;6.676;2022-11-15T01:43:51;10.90;99.90
15777;DHT22;7989;51.198;6.676;2022-11-15T01:46:28;10.80;99.90
15777;DHT22;7989;51.198;6.676;2022-11-15T01:49:00;10.90;99.90
15777;DHT22;7989;51.198;6.676;2022-11-15T01:51:30;10.90;99.90
15777;DHT22;7989;51.198;6.676;2022-11-15T01:54:02;10.90;99.90
15777;DHT22;7989;51.198;6.676;2022-11-15T01:56:32;11.00;99.90
15777;DHT22;7989;51.198;6.676;2022-11-15T01:59:04;11.00;99.90
15777;DHT22;7989;51.198;6.676;2022-11-15T02:01:34;11.00;99.90
15777;DHT22;7989;51.198;6.676;2022-11-15T02:04:05;11.10;99.90
15777;DHT22;7989;51.198;6.676;2022-11-15T02:06:35;11.10;99.90
15777;DHT22;7989;51.198;6.676;2022-11-15T02:09:03;11.10;99.90
15777;DHT22;7989;51.198;6.676;2022-11-15T02:11:29;11.10;99.90
15777;DHT22;7989;51.198;6.676;2022-11-15T02:13:58;11.10;99.90
15777;DHT22;7989;51.198;6.676;2022-11-15T02:16:31;11.10;99.90
15777;DHT22;7989;51.198;6.676;2022-11-15T02:19:17;11.20;99.90
15777;DHT22;7989;51.198;6.676;2022-11-15T02:21:57;11.20;99.90
15777;DHT22;7989;51.198;6.676;2022-11-15T02:24:49;11.30;99.90
15777;DHT22;7989;51.198;6.676;2022-11-15T02:30:32;11.20;99.90
15777;DHT22;7989;51.198;6.676;2022-11-15T02:33:03;11.30;99.90
15777;DHT22;7989;51.198;6.676;2022-11-15T02:35:37;11.30;99.90
15777;DHT22;7989;51.198;6.676;2022-11-15T02:38:12;11.30;99.90
15777;DHT22;7989;51.198;6.676;2022-11-15T02:40:47;11.30;99.90
15777;DHT22;7989;51.198;6.676;2022-11-15T02:43:18;11.40;99.90
15777;DHT22;7989;51.198;6.676;2022-11-15T02:46:09;11.50;99.90
15777;DHT22;7989;51.198;6.676;2022-11-15T02:48:39;11.50;99.90
15777;DHT22;7989;51.198;6.676;2022-11-15T02:51:07;11.50;99.90
15777;DHT22;7989;51.198;6.676;2022-11-15T02:53:34;11.50;99.90
15777;DHT22;7989;51.198;6.676;2022-11-15T02:56:01;11.50;99.90
15777;DHT22;7989;51.198;6.676;2022-11-15T02:58:48;11.60;99.90
15777;DHT22;7989;51.198;6.676;2022-11-15T03:01:28;11.60;99.90
15777;DHT22;7989;51.198;6.676;2022-11-15T03:04:04;11.70;99.90
15777;DHT22;7989;51.198;6.676;2022-11-15T03:06:42;11.70;99.90
15777;DHT22;7989;51.198;6.676;2022-11-15T03:09:16;11.70;99.90
15777;DHT22;7989;51.198;6.676;2022-11-15T03:11:48;11.70;99.90
15777;DHT22;7989;51.198;6.676;2022-11-15T03:14:22;11.70;99.90
15777;DHT22;7989;51.198;6.676;2022-11-15T03:16:58;11.70;99.90
15777;DHT22;7989;51.198;6.676;2022-11-15T03:19:30;11.70;99.90
15777;DHT22;7989;51.198;6.676;2022-11-15T03:22:00;11.80;99.90
15777;DHT22;7989;51.198;6.676;2022-11-15T03:24:30;11.70;99.90
15777;DHT22;7989;51.198;6.676;2022-11-15T03:26:59;11.80;99.90
15777;DHT22;7989;51.198;6.676;2022-11-15T03:29:31;11.80;99.90
15777;DHT22;7989;51.198;6.676;2022-11-15T03:32:02;11.90;99.90
15777;DHT22;7989;51.198;6.676;2022-11-15T03:34:34;11.90;99.90
15777;DHT22;7989;51.198;6.676;2022-11-15T03:37:04;11.90;99.90
15777;DHT22;7989;51.198;6.676;2022-11-15T03:39:31;11.90;99.90
15777;DHT22;7989;51.198;6.676;2022-11-15T03:42:07;11.90;99.90
15777;DHT22;7989;51.198;6.676;2022-11-15T03:44:43;11.90;99.90
15777;DHT22;7989;51.198;6.676;2022-11-15T03:47:17;11.90;99.90
15777;DHT22;7989;51.198;6.676;2022-11-15T03:49:50;11.90;99.90
15777;DHT22;7989;51.198;6.676;2022-11-15T03:52:18;12.00;99.90
15777;DHT22;7989;51.198;6.676;2022-11-15T03:54:50;12.00;99.90
15777;DHT22;7989;51.198;6.676;2022-11-15T03:57:17;12.00;99.90
15777;DHT22;7989;51.198;6.676;2022-11-15T03:59:44;12.00;99.90
15777;DHT22;7989;51.198;6.676;2022-11-15T04:02:11;12.10;99.90
15777;DHT22;7989;51.198;6.676;2022-11-15T04:04:39;12.10;99.90
15777;DHT22;7989;51.198;6.676;2022-11-15T04:07:06;12.00;99.90
15777;DHT22;7989;51.198;6.676;2022-11-15T04:09:33;12.00;99.90
15777;DHT22;7989;51.198;6.676;2022-11-15T04:12:20;12.10;99.90
15777;DHT22;7989;51.198;6.676;2022-11-15T04:14:56;12.00;99.90
15777;DHT22;7989;51.198;6.676;2022-11-15T04:17:34;12.10;99.90
15777;DHT22;7989;51.198;6.676;2022-11-15T04:20:03;12.10;99.90
15777;DHT22;7989;51.198;6.676;2022-11-15T04:22:47;12.10;99.90
15777;DHT22;7989;51.198;6.676;2022-11-15T04:25:31;12.10;99.90
15777;DHT22;7989;51.198;6.676;2022-11-15T04:27:58;12.10;99.90
15777;DHT22;7989;51.198;6.676;2022-11-15T04:30:25;12.10;99.90
15777;DHT22;7989;51.198;6.676;2022-11-15T04:32:51;12.20;99.90
15777;DHT22;7989;51.198;6.676;2022-11-15T04:35:19;12.20;99.90
15777;DHT22;7989;51.198;6.676;2022-11-15T04:37:46;12.20;99.90
15777;DHT22;7989;51.198;6.676;2022-11-15T04:40:12;12.20;99.90
15777;DHT22;7989;51.198;6.676;2022-11-15T04:42:40;12.20;99.90
15777;DHT22;7989;51.198;6.676;2022-11-15T04:45:08;12.20;99.90
15777;DHT22;7989;51.198;6.676;2022-11-15T04:47:35;12.20;99.90
15777;DHT22;7989;51.198;6.676;2022-11-15T04:50:03;12.20;99.90
15777;DHT22;7989;51.198;6.676;2022-11-15T04:52:31;12.20;99.90
15777;DHT22;7989;51.198;6.676;2022-11-15T04:54:58;12.20;99.90
15777;DHT22;7989;51.198;6.676;2022-11-15T04:57:25;12.20;99.90
15777;DHT22;7989;51.198;6.676;2022-11-15T04:59:52;12.10;99.90
15777;DHT22;7989;51.198;6.676;2022-11-15T05:02:18;12.10;99.90
15777;DHT22;7989;51.198;6.676;2022-11-15T05:04:45;12.10;99.90
15777;DHT22;7989;51.198;6.676;2022-11-15T05:07:11;12.10;99.90
15777;DHT22;7989;51.198;6.676;2022-11-15T05:09:39;12.10;99.90
15777;DHT22;7989;51.198;6.676;2022-11-15T05:12:06;12.10;99.90
15777;DHT22;7989;51.198;6.676;2022-11-15T05:14:33;12.10;99.90
15777;DHT22;7989;51.198;6.676;2022-11-15T05:17:00;12.10;99.90
15777;DHT22;7989;51.198;6.676;2022-11-15T05:19:27;12.10;99.90
15777;DHT22;7989;51.198;6.676;2022-11-15T05:21:53;12.10;99.90
15777;DHT22;7989;51.198;6.676;2022-11-15T05:24:20;12.10;99.90
15777;DHT22;7989;51.198;6.676;2022-11-15T05:26:48;12.10;99.90
15777;DHT22;7989;51.198;6.676;2022-11-15T05:29:15;12.10;99.90
15777;DHT22;7989;51.198;6.676;2022-11-15T05:31:42;12.10;99.90
15777;DHT22;7989;51.198;6.676;2022-11-15T05:34:09;12.10;99.90
15777;DHT22;7989;51.198;6.676;2022-11-15T05:36:38;12.00;99.90
15777;DHT22;7989;51.198;6.676;2022-11-15T05:39:06;12.10;99.90
15777;DHT22;7989;51.198;6.676;2022-11-15T05:41:36;12.10;99.90
15777;DHT22;7989;51.198;6.676;2022-11-15T05:44:07;12.10;99.90
15777;DHT22;7989;51.198;6.676;2022-11-15T05:46:35;12.00;99.90
15777;DHT22;7989;51.198;6.676;2022-11-15T05:49:05;12.00;99.90
15777;DHT22;7989;51.198;6.676;2022-11-15T05:51:34;12.10;99.90
15777;DHT22;7989;51.198;6.676;2022-11-15T05:54:01;12.10;99.90
15777;DHT22;7989;51.198;6.676;2022-11-15T05:56:28;12.10;99.90
15777;DHT22;7989;51.198;6.676;2022-11-15T05:58:56;12.10;99.90
15777;DHT22;7989;51.198;6.676;2022-11-15T06:01:26;12.10;99.90
15777;DHT22;7989;51.198;6.676;2022-11-15T06:03:53;12.10;99.90
15777;DHT22;7989;51.198;6.676;2022-11-15T06:06:20;12.00;99.90
15777;DHT22;7989;51.198;6.676;2022-11-15T06:08:47;12.00;99.90
15777;DHT22;7989;51.198;6.676;2022-11-15T06:11:14;12.00;99.90
15777;DHT22;7989;51.198;6.676;2022-11-15T06:13:41;12.00;99.90
15777;DHT22;7989;51.198;6.676;2022-11-15T06:16:07;12.00;99.90
15777;DHT22;7989;51.198;6.676;2022-11-15T06:18:36;12.00;99.90
15777;DHT22;7989;51.198;6.676;2022-11-15T06:21:03;12.00;99.90
15777;DHT22;7989;51.198;6.676;2022-11-15T06:23:32;12.00;99.90
15777;DHT22;7989;51.198;6.676;2022-11-15T06:25:59;12.00;99.90
15777;DHT22;7989;51.198;6.676;2022-11-15T06:28:28;12.00;99.90
15777;DHT22;7989;51.198;6.676;2022-11-15T06:30:56;12.00;99.90
15777;DHT22;7989;51.198;6.676;2022-11-15T06:33:22;12.00;99.90
15777;DHT22;7989;51.198;6.676;2022-11-15T06:35:51;12.00;99.90
15777;DHT22;7989;51.198;6.676;2022-11-15T06:38:17;12.00;99.90
15777;DHT22;7989;51.198;6.676;2022-11-15T06:40:44;12.10;99.90
15777;DHT22;7989;51.198;6.676;2022-11-15T06:43:11;12.10;99.90
15777;DHT22;7989;51.198;6.676;2022-11-15T06:45:38;12.10;99.90
15777;DHT22;7989;51.198;6.676;2022-11-15T06:48:05;12.10;99.90
15777;DHT22;7989;51.198;6.676;2022-11-15T06:50:32;12.10;99.90
15777;DHT22;7989;51.198;6.676;2022-11-15T06:53:04;12.10;99.90
15777;DHT22;7989;51.198;6.676;2022-11-15T06:55:30;12.10;99.90
15777;DHT22;7989;51.198;6.676;2022-11-15T06:57:57;12.20;99.90
15777;DHT22;7989;51.198;6.676;2022-11-15T07:00:24;12.20;99.90
15777;DHT22;7989;51.198;6.676;2022-11-15T07:02:51;12.20;99.90
15777;DHT22;7989;51.198;6.676;2022-11-15T07:05:17;12.20;99.90
15777;DHT22;7989;51.198;6.676;2022-11-15T07:07:51;12.30;99.90
15777;DHT22;7989;51.198;6.676;2022-11-15T07:10:20;12.20;99.90
15777;DHT22;7989;51.198;6.676;2022-11-15T07:12:47;12.30;99.90
15777;DHT22;7989;51.198;6.676;2022-11-15T07:15:15;12.30;99.90
15777;DHT22;7989;51.198;6.676;2022-11-15T07:17:42;12.30;99.90
15777;DHT22;7989;51.198;6.676;2022-11-15T07:20:10;12.30;99.90
15777;DHT22;7989;51.198;6.676;2022-11-15T07:22:37;12.30;99.90
15777;DHT22;7989;51.198;6.676;2022-11-15T07:25:04;12.30;99.90
15777;DHT22;7989;51.198;6.676;2022-11-15T07:27:32;12.30;99.90
15777;DHT22;7989;51.198;6.676;2022-11-15T07:29:59;12.20;99.90
15777;DHT22;7989;51.198;6.676;2022-11-15T07:32:26;12.20;99.90
15777;DHT22;7989;51.198;6.676;2022-11-15T07:34:53;12.20;99.90
15777;DHT22;7989;51.198;6.676;2022-11-15T07:37:20;12.20;99.90
15777;DHT22;7989;51.198;6.676;2022-11-15T07:39:46;12.20;99.90
15777;DHT22;7989;51.198;6.676;2022-11-15T07:42:13;12.20;99.90
15777;DHT22;7989;51.198;6.676;2022-11-15T07:44:59;12.10;99.90
15777;DHT22;7989;51.198;6.676;2022-11-15T07:47:28;12.10;99.90
15777;DHT22;7989;51.198;6.676;2022-11-15T07:49:55;12.10;99.90
15777;DHT22;7989;51.198;6.676;2022-11-15T07:52:22;12.10;99.90
15777;DHT22;7989;51.198;6.676;2022-11-15T07:54:49;12.10;99.90
15777;DHT22;7989;51.198;6.676;2022-11-15T07:57:16;12.10;99.90
15777;DHT22;7989;51.198;6.676;2022-11-15T07:59:42;12.10;99.90
15777;DHT22;7989;51.198;6.676;2022-11-15T08:02:11;12.10;99.90
15777;DHT22;7989;51.198;6.676;2022-11-15T08:04:37;12.10;99.90
15777;DHT22;7989;51.198;6.676;2022-11-15T08:07:04;12.20;99.90
15777;DHT22;7989;51.198;6.676;2022-11-15T08:09:31;12.30;99.90
15777;DHT22;7989;51.198;6.676;2022-11-15T08:11:58;12.40;99.90
15777;DHT22;7989;51.198;6.676;2022-11-15T08:14:25;12.40;99.90
15777;DHT22;7989;51.198;6.676;2022-11-15T08:16:52;12.30;99.90
15777;DHT22;7989;51.198;6.676;2022-11-15T08:19:20;12.30;99.90
15777;DHT22;7989;51.198;6.676;2022-11-15T08:21:47;12.20;99.90
15777;DHT22;7989;51.198;6.676;2022-11-15T08:24:14;12.20;99.90
15777;DHT22;7989;51.198;6.676;2022-11-15T08:26:41;12.10;99.90
15777;DHT22;7989;51.198;6.676;2022-11-15T08:29:07;12.20;99.90
15777;DHT22;7989;51.198;6.676;2022-11-15T08:31:35;12.10;99.90
15777;DHT22;7989;51.198;6.676;2022-11-15T08:34:02;12.30;99.90
15777;DHT22;7989;51.198;6.676;2022-11-15T08:36:31;12.50;99.90
15777;DHT22;7989;51.198;6.676;2022-11-15T08:38:58;12.80;99.90
15777;DHT22;7989;51.198;6.676;2022-11-15T08:41:28;13.10;99.90
15777;DHT22;7989;51.198;6.676;2022-11-15T08:43:56;13.20;99.90
15777;DHT22;7989;51.198;6.676;2022-11-15T08:46:23;13.20;99.90
15777;DHT22;7989;51.198;6.676;2022-11-15T08:48:50;13.20;99.90
15777;DHT22;7989;51.198;6.676;2022-11-15T08:51:17;13.20;99.90
15777;DHT22;7989;51.198;6.676;2022-11-15T08:53:45;13.30;99.90
15777;DHT22;7989;51.198;6.676;2022-11-15T08:56:14;13.20;99.90
15777;DHT22;7989;51.198;6.676;2022-11-15T08:58:41;13.20;99.90
15777;DHT22;7989;51.198;6.676;2022-11-15T09:01:15;13.20;99.90
15777;DHT22;7989;51.198;6.676;2022-11-15T09:03:42;13.20;99.90
15777;DHT22;7989;51.198;6.676;2022-11-15T09:06:08;13.10;99.90
15777;DHT22;7989;51.198;6.676;2022-11-15T09:08:35;13.10;99.90
15777;DHT22;7989;51.198;6.676;2022-11-15T09:11:04;13.20;99.90
15777;DHT22;7989;51.198;6.676;2022-11-15T09:13:32;13.20;99.90
15777;DHT22;7989;51.198;6.676;2022-11-15T09:15:59;13.20;99.90
15777;DHT22;7989;51.198;6.676;2022-11-15T09:18:26;13.30;99.90
15777;DHT22;7989;51.198;6.676;2022-11-15T09:20:55;13.40;99.90
15777;DHT22;7989;51.198;6.676;2022-11-15T09:23:23;13.50;99.90
15777;DHT22;7989;51.198;6.676;2022-11-15T09:25:50;13.70;99.90
15777;DHT22;7989;51.198;6.676;2022-11-15T09:28:18;13.70;99.90
15777;DHT22;7989;51.198;6.676;2022-11-15T09:30:45;13.70;99.90
15777;DHT22;7989;51.198;6.676;2022-11-15T09:33:12;13.70;99.90
15777;DHT22;7989;51.198;6.676;2022-11-15T09:35:39;14.00;99.90
15777;DHT22;7989;51.198;6.676;2022-11-15T09:38:07;14.40;99.90
15777;DHT22;7989;51.198;6.676;2022-11-15T09:40:36;14.30;99.90
15777;DHT22;7989;51.198;6.676;2022-11-15T09:43:23;14.10;99.90
15777;DHT22;7989;51.198;6.676;2022-11-15T09:46:06;14.20;99.90
15777;DHT22;7989;51.198;6.676;2022-11-15T09:48:53;14.20;99.90
15777;DHT22;7989;51.198;6.676;2022-11-15T09:51:30;14.20;99.90
15777;DHT22;7989;51.198;6.676;2022-11-15T09:54:04;14.10;99.90
15777;DHT22;7989;51.198;6.676;2022-11-15T09:56:35;14.00;99.90
15777;DHT22;7989;51.198;6.676;2022-11-15T09:59:22;14.00;99.90
15777;DHT22;7989;51.198;6.676;2022-11-15T10:01:59;14.30;99.90
15777;DHT22;7989;51.198;6.676;2022-11-15T10:04:29;15.20;99.90
15777;DHT22;7989;51.198;6.676;2022-11-15T10:07:01;16.00;99.90
15777;DHT22;7989;51.198;6.676;2022-11-15T10:09:35;16.30;99.90
15777;DHT22;7989;51.198;6.676;2022-11-15T10:12:04;16.40;99.90
15777;DHT22;7989;51.198;6.676;2022-11-15T10:14:32;16.20;99.90
15777;DHT22;7989;51.198;6.676;2022-11-15T10:17:18;15.40;99.90
15777;DHT22;7989;51.198;6.676;2022-11-15T10:20:04;15.90;99.90
15777;DHT22;7989;51.198;6.676;2022-11-15T10:22:39;17.10;99.90
15777;DHT22;7989;51.198;6.676;2022-11-15T10:25:20;17.20;99.90
15777;DHT22;7989;51.198;6.676;2022-11-15T10:27:53;15.70;99.90
15777;DHT22;7989;51.198;6.676;2022-11-15T10:30:22;15.70;99.90
15777;DHT22;7989;51.198;6.676;2022-11-15T10:32:50;16.40;99.90
15777;DHT22;7989;51.198;6.676;2022-11-15T10:35:19;16.40;99.90
15777;DHT22;7989;51.198;6.676;2022-11-15T10:37:47;16.30;99.90
15777;DHT22;7989;51.198;6.676;2022-11-15T10:40:17;16.40;99.90
15777;DHT22;7989;51.198;6.676;2022-11-15T10:42:44;16.70;99.90
15777;DHT22;7989;51.198;6.676;2022-11-15T10:45:34;17.70;99.90
15777;DHT22;7989;51.198;6.676;2022-11-15T10:48:20;18.20;99.90
15777;DHT22;7989;51.198;6.676;2022-11-15T10:50:48;18.90;99.90
15777;DHT22;7989;51.198;6.676;2022-11-15T10:53:21;18.70;99.90
15777;DHT22;7989;51.198;6.676;2022-11-15T10:55:51;18.30;99.90
15777;DHT22;7989;51.198;6.676;2022-11-15T10:58:22;17.80;99.90
15777;DHT22;7989;51.198;6.676;2022-11-15T11:00:55;17.20;99.90
15777;DHT22;7989;51.198;6.676;2022-11-15T11:03:29;17.00;99.90
15777;DHT22;7989;51.198;6.676;2022-11-15T11:06:05;16.80;99.90
15777;DHT22;7989;51.198;6.676;2022-11-15T11:08:32;17.10;99.90
15777;DHT22;7989;51.198;6.676;2022-11-15T11:11:01;17.30;99.90
15777;DHT22;7989;51.198;6.676;2022-11-15T11:13:29;17.40;99.90
15777;DHT22;7989;51.198;6.676;2022-11-15T11:16:06;17.20;99.90
15777;DHT22;7989;51.198;6.676;2022-11-15T11:18:41;17.10;99.90
15777;DHT22;7989;51.198;6.676;2022-11-15T11:21:13;17.20;99.90
15777;DHT22;7989;51.198;6.676;2022-11-15T11:23:47;17.20;99.90
15777;DHT22;7989;51.198;6.676;2022-11-15T11:26:41;17.20;99.90
15777;DHT22;7989;51.198;6.676;2022-11-15T11:29:19;17.00;99.90
15777;DHT22;7989;51.198;6.676;2022-11-15T11:31:56;16.90;99.90
15777;DHT22;7989;51.198;6.676;2022-11-15T11:34:34;16.60;99.90
15777;DHT22;7989;51.198;6.676;2022-11-15T11:37:09;16.20;99.90
15777;DHT22;7989;51.198;6.676;2022-11-15T11:39:46;15.90;99.90
15777;DHT22;7989;51.198;6.676;2022-11-15T11:42:22;15.70;99.90
15777;DHT22;7989;51.198;6.676;2022-11-15T11:44:57;15.60;99.90
15777;DHT22;7989;51.198;6.676;2022-11-15T11:47:32;15.50;99.90
15777;DHT22;7989;51.198;6.676;2022-11-15T11:50:02;15.50;99.90
15777;DHT22;7989;51.198;6.676;2022-11-15T11:52:34;15.50;99.90
15777;DHT22;7989;51.198;6.676;2022-11-15T11:55:11;15.60;99.90
15777;DHT22;7989;51.198;6.676;2022-11-15T11:57:44;15.80;99.90
15777;DHT22;7989;51.198;6.676;2022-11-15T12:00:17;16.00;99.90
15777;DHT22;7989;51.198;6.676;2022-11-15T12:02:50;16.00;99.90
15777;DHT22;7989;51.198;6.676;2022-11-15T12:05:27;16.20;99.90
15777;DHT22;7989;51.198;6.676;2022-11-15T12:08:02;16.30;99.90
15777;DHT22;7989;51.198;6.676;2022-11-15T12:10:30;16.40;99.90
15777;DHT22;7989;51.198;6.676;2022-11-15T12:13:03;16.50;99.90
15777;DHT22;7989;51.198;6.676;2022-11-15T12:15:39;16.40;99.90
15777;DHT22;7989;51.198;6.676;2022-11-15T12:18:12;16.30;99.90
15777;DHT22;7989;51.198;6.676;2022-11-15T12:20:50;16.00;99.90
15777;DHT22;7989;51.198;6.676;2022-11-15T12:23:21;15.70;99.90
15777;DHT22;7989;51.198;6.676;2022-11-15T12:25:52;15.60;99.90
15777;DHT22;7989;51.198;6.676;2022-11-15T12:28:24;15.70;99.90
15777;DHT22;7989;51.198;6.676;2022-11-15T12:30:59;15.80;99.90
15777;DHT22;7989;51.198;6.676;2022-11-15T12:33:32;15.90;99.90
15777;DHT22;7989;51.198;6.676;2022-11-15T12:36:02;16.00;99.90
15777;DHT22;7989;51.198;6.676;2022-11-15T12:38:56;16.00;99.90
15777;DHT22;7989;51.198;6.676;2022-11-15T12:41:25;16.10;99.90
15777;DHT22;7989;51.198;6.676;2022-11-15T12:43:52;16.30;99.90
15777;DHT22;7989;51.198;6.676;2022-11-15T12:49:09;16.60;99.90
15777;DHT22;7989;51.198;6.676;2022-11-15T12:52:04;16.40;99.90
15777;DHT22;7989;51.198;6.676;2022-11-15T12:55:00;16.10;99.90
15777;DHT22;7989;51.198;6.676;2022-11-15T12:57:38;16.10;99.90
15777;DHT22;7989;51.198;6.676;2022-11-15T13:03:23;16.40;99.90
15777;DHT22;7989;51.198;6.676;2022-11-15T13:08:58;15.80;99.90
15777;DHT22;7989;51.198;6.676;2022-11-15T13:11:45;15.60;99.90
15777;DHT22;7989;51.198;6.676;2022-11-15T13:14:42;15.50;99.90
15777;DHT22;7989;51.198;6.676;2022-11-15T13:17:29;15.30;99.90
15777;DHT22;7989;51.198;6.676;2022-11-15T13:20:19;15.10;99.90
15777;DHT22;7989;51.198;6.676;2022-11-15T13:22:48;15.20;99.90
15777;DHT22;7989;51.198;6.676;2022-11-15T13:25:36;15.20;99.90
15777;DHT22;7989;51.198;6.676;2022-11-15T13:28:11;15.20;99.90
15777;DHT22;7989;51.198;6.676;2022-11-15T13:30:50;15.20;99.90
15777;DHT22;7989;51.198;6.676;2022-11-15T13:33:20;15.20;99.90
15777;DHT22;7989;51.198;6.676;2022-11-15T13:35:49;15.20;99.90
15777;DHT22;7989;51.198;6.676;2022-11-15T13:38:19;15.20;99.90
15777;DHT22;7989;51.198;6.676;2022-11-15T13:40:53;15.20;99.90
15777;DHT22;7989;51.198;6.676;2022-11-15T13:43:27;15.20;99.90
15777;DHT22;7989;51.198;6.676;2022-11-15T13:46:10;15.20;99.90
15777;DHT22;7989;51.198;6.676;2022-11-15T13:48:37;15.10;99.90
15777;DHT22;7989;51.198;6.676;2022-11-15T13:51:08;15.00;99.90
15777;DHT22;7989;51.198;6.676;2022-11-15T13:53:40;15.00;99.90
15777;DHT22;7989;51.198;6.676;2022-11-15T13:56:09;15.00;99.90
15777;DHT22;7989;51.198;6.676;2022-11-15T13:58:37;15.00;99.90
15777;DHT22;7989;51.198;6.676;2022-11-15T14:01:05;14.90;99.90
15777;DHT22;7989;51.198;6.676;2022-11-15T14:03:35;14.90;99.90
15777;DHT22;7989;51.198;6.676;2022-11-15T14:06:09;14.90;99.90
15777;DHT22;7989;51.198;6.676;2022-11-15T14:08:38;15.00;99.90
15777;DHT22;7989;51.198;6.676;2022-11-15T14:11:06;15.00;99.90
15777;DHT22;7989;51.198;6.676;2022-11-15T14:13:35;15.00;99.90
15777;DHT22;7989;51.198;6.676;2022-11-15T14:16:17;14.90;99.90
15777;DHT22;7989;51.198;6.676;2022-11-15T14:18:46;14.90;99.90
15777;DHT22;7989;51.198;6.676;2022-11-15T14:21:14;14.90;99.90
15777;DHT22;7989;51.198;6.676;2022-11-15T14:23:41;14.80;99.90
15777;DHT22;7989;51.198;6.676;2022-11-15T14:26:26;14.70;99.90
15777;DHT22;7989;51.198;6.676;2022-11-15T14:28:55;14.70;99.90
15777;DHT22;7989;51.198;6.676;2022-11-15T14:31:21;14.70;99.90
15777;DHT22;7989;51.198;6.676;2022-11-15T14:33:48;14.70;99.90
15777;DHT22;7989;51.198;6.676;2022-11-15T14:36:17;14.70;99.90
15777;DHT22;7989;51.198;6.676;2022-11-15T14:38:45;14.60;99.90
15777;DHT22;7989;51.198;6.676;2022-11-15T14:41:20;14.60;99.90
15777;DHT22;7989;51.198;6.676;2022-11-15T14:43:47;14.60;99.90
15777;DHT22;7989;51.198;6.676;2022-11-15T14:46:15;14.60;99.90
15777;DHT22;7989;51.198;6.676;2022-11-15T14:48:43;14.60;99.90
15777;DHT22;7989;51.198;6.676;2022-11-15T14:51:12;14.60;99.90
15777;DHT22;7989;51.198;6.676;2022-11-15T14:53:39;14.60;99.90
15777;DHT22;7989;51.198;6.676;2022-11-15T14:56:06;14.60;99.90
15777;DHT22;7989;51.198;6.676;2022-11-15T14:58:33;14.60;99.90
15777;DHT22;7989;51.198;6.676;2022-11-15T15:01:01;14.50;99.90
15777;DHT22;7989;51.198;6.676;2022-11-15T15:03:30;14.50;99.90
15777;DHT22;7989;51.198;6.676;2022-11-15T15:05:57;14.50;99.90
15777;DHT22;7989;51.198;6.676;2022-11-15T15:08:23;14.50;99.90
15777;DHT22;7989;51.198;6.676;2022-11-15T15:10:50;14.50;99.90
15777;DHT22;7989;51.198;6.676;2022-11-15T15:13:18;14.40;99.90
15777;DHT22;7989;51.198;6.676;2022-11-15T15:15:46;14.40;99.90
15777;DHT22;7989;51.198;6.676;2022-11-15T15:18:13;14.40;99.90
15777;DHT22;7989;51.198;6.676;2022-11-15T15:20:43;14.40;99.90
15777;DHT22;7989;51.198;6.676;2022-11-15T15:23:15;14.40;99.90
15777;DHT22;7989;51.198;6.676;2022-11-15T15:25:42;14.40;99.90
15777;DHT22;7989;51.198;6.676;2022-11-15T15:28:11;14.30;99.90
15777;DHT22;7989;51.198;6.676;2022-11-15T15:30:38;14.30;99.90
15777;DHT22;7989;51.198;6.676;2022-11-15T15:33:05;14.30;99.90
15777;DHT22;7989;51.198;6.676;2022-11-15T15:35:33;14.30;99.90
15777;DHT22;7989;51.198;6.676;2022-11-15T15:38:02;14.30;99.90
15777;DHT22;7989;51.198;6.676;2022-11-15T15:40:31;14.30;99.90
15777;DHT22;7989;51.198;6.676;2022-11-15T15:42:58;14.30;99.90
15777;DHT22;7989;51.198;6.676;2022-11-15T15:45:25;14.30;99.90
15777;DHT22;7989;51.198;6.676;2022-11-15T15:47:53;14.20;99.90
15777;DHT22;7989;51.198;6.676;2022-11-15T15:50:23;14.30;99.90
15777;DHT22;7989;51.198;6.676;2022-11-15T15:52:51;14.20;99.90
15777;DHT22;7989;51.198;6.676;2022-11-15T15:55:19;14.20;99.90
15777;DHT22;7989;51.198;6.676;2022-11-15T15:57:46;14.20;99.90
15777;DHT22;7989;51.198;6.676;2022-11-15T16:00:14;14.20;99.90
15777;DHT22;7989;51.198;6.676;2022-11-15T16:02:41;14.10;99.90
15777;DHT22;7989;51.198;6.676;2022-11-15T16:05:08;14.20;99.90
15777;DHT22;7989;51.198;6.676;2022-11-15T16:07:36;14.10;99.90
15777;DHT22;7989;51.198;6.676;2022-11-15T16:10:19;14.10;99.90
15777;DHT22;7989;51.198;6.676;2022-11-15T16:12:46;14.10;99.90
15777;DHT22;7989;51.198;6.676;2022-11-15T16:15:13;14.10;99.90
15777;DHT22;7989;51.198;6.676;2022-11-15T16:17:44;14.20;99.90